createdAt,value
2022-10-31T00:00:16.725Z,74.12
2022-10-31T00:01:16.659Z,57.69
2022-10-31T00:02:16.781Z,56.56
2022-10-31T00:03:16.665Z,53.66
2022-10-31T00:04:16.620Z,54.30
2022-10-31T00:05:17.632Z,55.75
2022-10-31T00:06:16.612Z,57.52
2022-10-31T00:07:16.614Z,57.36
2022-10-31T00:08:16.628Z,54.95
2022-10-31T00:09:16.583Z,53.82
2022-10-31T00:10:16.575Z,66.23
2022-10-31T00:11:16.588Z,57.52
2022-10-31T00:12:16.605Z,64.13
2022-10-31T00:13:16.720Z,56.88
2022-10-31T00:14:16.570Z,84.59
2022-10-31T00:15:16.572Z,74.28
2022-10-31T00:16:16.543Z,55.43
2022-10-31T00:17:16.581Z,53.82
2022-10-31T00:18:16.538Z,66.71
2022-10-31T00:19:16.534Z,84.27
2022-10-31T00:20:16.516Z,55.27
2022-10-31T00:21:16.509Z,69.13
2022-10-31T00:22:16.526Z,80.57
2022-10-31T00:23:16.532Z,76.86
2022-10-31T00:24:16.524Z,81.37
2022-10-31T00:25:16.531Z,55.75
2022-10-31T00:26:16.481Z,75.41
2022-10-31T00:27:16.483Z,55.11
2022-10-31T00:28:16.576Z,55.43
2022-10-31T00:29:16.499Z,54.62
2022-10-31T00:30:16.480Z,55.27
2022-10-31T00:31:16.461Z,55.43
2022-10-31T00:32:16.478Z,56.07
2022-10-31T00:33:16.422Z,56.40
2022-10-31T00:34:16.451Z,54.46
2022-10-31T00:35:16.452Z,55.11
2022-10-31T00:36:17.435Z,55.75
2022-10-31T00:37:16.415Z,55.27
2022-10-31T00:38:16.495Z,55.27
2022-10-31T00:39:16.410Z,55.59
2022-10-31T00:40:16.395Z,53.98
2022-10-31T00:41:16.439Z,54.79
2022-10-31T00:42:16.400Z,54.30
2022-10-31T00:43:16.421Z,60.75
2022-10-31T00:44:16.400Z,57.20
2022-10-31T00:45:16.423Z,54.95
2022-10-31T00:46:16.380Z,72.67
2022-10-31T00:47:16.353Z,56.07
2022-10-31T00:48:16.350Z,57.36
2022-10-31T00:49:17.238Z,59.46
2022-10-31T00:50:16.348Z,57.20
2022-10-31T00:51:16.390Z,53.66
2022-10-31T00:52:16.323Z,55.27
2022-10-31T00:53:16.318Z,76.70
2022-10-31T00:54:16.420Z,53.98
2022-10-31T00:55:16.312Z,54.46
2022-10-31T00:56:16.385Z,55.43
2022-10-31T00:57:16.329Z,53.82
2022-10-31T00:58:16.307Z,55.43
2022-10-31T00:59:16.292Z,54.95
2022-10-31T01:00:16.298Z,55.11
2022-10-31T01:01:16.362Z,56.07
2022-10-31T01:02:16.472Z,76.05
2022-10-31T01:03:16.279Z,54.46
2022-10-31T01:04:16.262Z,57.04
2022-10-31T01:05:16.243Z,74.93
2022-10-31T01:06:16.238Z,54.14
2022-10-31T01:07:16.263Z,65.58
2022-10-31T01:08:16.217Z,75.09
2022-10-31T01:09:16.222Z,84.92
2022-10-31T01:10:16.217Z,56.72
2022-10-31T01:11:16.225Z,80.08
2022-10-31T01:12:16.204Z,55.11
2022-10-31T01:13:16.233Z,55.11
2022-10-31T01:14:16.741Z,70.25
2022-10-31T01:15:16.195Z,71.06
2022-10-31T01:16:16.207Z,65.74
2022-10-31T01:17:16.158Z,55.11
2022-10-31T01:18:16.166Z,54.46
2022-10-31T01:19:16.229Z,54.62
2022-10-31T01:20:16.160Z,54.79
2022-10-31T01:21:16.142Z,55.27
2022-10-31T01:22:16.148Z,54.14
2022-10-31T01:23:16.130Z,82.98
2022-10-31T01:24:16.139Z,70.42
2022-10-31T01:25:16.107Z,55.27
2022-10-31T01:26:16.906Z,57.20
2022-10-31T01:27:16.107Z,59.30
2022-10-31T01:28:16.168Z,66.55
2022-10-31T01:29:16.094Z,73.32
2022-10-31T01:30:16.091Z,74.44
2022-10-31T01:31:16.119Z,76.86
2022-10-31T01:32:16.095Z,57.20
2022-10-31T01:33:17.070Z,79.44
2022-10-31T01:34:16.714Z,62.20
2022-10-31T01:35:16.065Z,56.40
2022-10-31T01:36:16.039Z,70.25
2022-10-31T01:37:16.055Z,56.56
2022-10-31T01:38:16.039Z,55.75
2022-10-31T01:39:16.076Z,55.27
2022-10-31T01:40:16.018Z,54.79
2022-10-31T01:41:16.003Z,58.01
2022-10-31T01:42:16.025Z,73.32
2022-10-31T01:43:16.046Z,53.66
2022-10-31T01:44:16.021Z,54.62
2022-10-31T01:45:16.002Z,82.66
2022-10-31T01:46:15.999Z,58.65
2022-10-31T01:47:16.034Z,71.54
2022-10-31T01:48:15.972Z,55.43
2022-10-31T01:49:15.995Z,56.24
2022-10-31T01:50:15.979Z,76.22
2022-10-31T01:51:15.959Z,58.81
2022-10-31T01:52:15.953Z,55.43
2022-10-31T01:53:15.946Z,53.66
2022-10-31T01:54:15.936Z,54.95
2022-10-31T01:55:15.935Z,56.24
2022-10-31T01:56:15.929Z,86.21
2022-10-31T01:57:15.954Z,57.52
2022-10-31T01:58:15.972Z,73.96
2022-10-31T01:59:15.903Z,55.91
2022-10-31T02:00:15.923Z,55.27
2022-10-31T02:01:16.108Z,55.11
2022-10-31T02:02:16.036Z,84.59
2022-10-31T02:03:15.905Z,57.04
2022-10-31T02:04:15.893Z,77.34
2022-10-31T02:05:15.875Z,55.43
2022-10-31T02:06:15.863Z,55.43
2022-10-31T02:07:16.650Z,57.85
2022-10-31T02:08:15.879Z,77.02
2022-10-31T02:09:15.842Z,58.01
2022-10-31T02:10:15.853Z,57.85
2022-10-31T02:11:15.858Z,58.33
2022-10-31T02:12:15.831Z,57.69
2022-10-31T02:13:15.954Z,72.03
2022-10-31T02:14:15.828Z,70.74
2022-10-31T02:15:15.820Z,58.01
2022-10-31T02:16:15.826Z,58.01
2022-10-31T02:17:15.839Z,58.49
2022-10-31T02:18:15.814Z,68.16
2022-10-31T02:19:15.794Z,70.25
2022-10-31T02:20:15.827Z,70.74
2022-10-31T02:21:15.787Z,60.75
2022-10-31T02:22:15.782Z,58.01
2022-10-31T02:23:15.847Z,58.65
2022-10-31T02:24:15.766Z,73.96
2022-10-31T02:25:15.764Z,58.65
2022-10-31T02:26:15.758Z,72.99
2022-10-31T02:27:15.767Z,58.65
2022-10-31T02:28:15.877Z,83.63
2022-10-31T02:29:15.754Z,59.14
2022-10-31T02:30:15.750Z,74.93
2022-10-31T02:31:15.747Z,58.33
2022-10-31T02:32:15.725Z,58.65
2022-10-31T02:33:15.746Z,58.49
2022-10-31T02:34:15.719Z,59.14
2022-10-31T02:35:15.699Z,71.06
2022-10-31T02:36:15.695Z,58.97
2022-10-31T02:37:15.690Z,69.77
2022-10-31T02:38:15.700Z,58.65
2022-10-31T02:39:15.686Z,58.33
2022-10-31T02:40:15.699Z,59.14
2022-10-31T02:41:15.667Z,74.60
2022-10-31T02:42:15.663Z,77.18
2022-10-31T02:43:15.686Z,76.05
2022-10-31T02:44:15.639Z,58.17
2022-10-31T02:45:15.686Z,74.77
2022-10-31T02:46:15.626Z,58.97
2022-10-31T02:47:15.636Z,73.80
2022-10-31T02:48:15.635Z,58.81
2022-10-31T02:49:15.634Z,58.65
2022-10-31T02:50:15.611Z,71.54
2022-10-31T02:51:15.623Z,67.03
2022-10-31T02:52:15.615Z,65.26
2022-10-31T02:53:15.798Z,58.33
2022-10-31T02:54:15.595Z,58.65
2022-10-31T02:55:15.603Z,58.81
2022-10-31T02:56:15.598Z,58.97
2022-10-31T02:57:15.615Z,58.81
2022-10-31T02:58:15.660Z,59.30
2022-10-31T02:59:15.578Z,59.62
2022-10-31T03:00:15.550Z,59.94
2022-10-31T03:01:15.684Z,72.03
2022-10-31T03:02:15.724Z,60.10
2022-10-31T03:03:15.547Z,61.39
2022-10-31T03:04:16.202Z,61.71
2022-10-31T03:05:15.554Z,74.12
2022-10-31T03:06:15.545Z,62.84
2022-10-31T03:07:15.570Z,83.63
2022-10-31T03:08:15.515Z,62.68
2022-10-31T03:09:15.510Z,77.50
2022-10-31T03:10:15.501Z,74.28
2022-10-31T03:11:15.497Z,62.52
2022-10-31T03:12:15.495Z,68.16
2022-10-31T03:13:15.563Z,71.06
2022-10-31T03:14:15.495Z,68.48
2022-10-31T03:15:15.484Z,64.94
2022-10-31T03:16:15.460Z,68.48
2022-10-31T03:17:15.472Z,59.78
2022-10-31T03:18:15.480Z,59.62
2022-10-31T03:19:15.475Z,60.42
2022-10-31T03:20:15.457Z,59.30
2022-10-31T03:21:15.475Z,62.52
2022-10-31T03:22:15.458Z,60.91
2022-10-31T03:23:15.449Z,79.12
2022-10-31T03:24:15.442Z,73.80
2022-10-31T03:25:15.472Z,74.44
2022-10-31T03:26:15.476Z,62.04
2022-10-31T03:27:15.412Z,66.55
2022-10-31T03:28:15.441Z,67.19
2022-10-31T03:29:15.408Z,75.25
2022-10-31T03:30:15.411Z,73.64
2022-10-31T03:31:15.391Z,73.80
2022-10-31T03:32:15.381Z,71.87
2022-10-31T03:33:15.371Z,77.18
2022-10-31T03:34:15.395Z,79.76
2022-10-31T03:35:15.369Z,65.10
2022-10-31T03:36:15.358Z,60.91
2022-10-31T03:37:15.402Z,61.87
2022-10-31T03:38:15.340Z,73.96
2022-10-31T03:39:15.419Z,69.93
2022-10-31T03:40:15.342Z,73.64
2022-10-31T03:41:15.345Z,74.93
2022-10-31T03:42:15.324Z,73.32
2022-10-31T03:43:15.372Z,64.61
2022-10-31T03:44:15.335Z,71.70
2022-10-31T03:45:15.301Z,70.42
2022-10-31T03:46:15.306Z,72.19
2022-10-31T03:47:15.346Z,72.99
2022-10-31T03:48:15.301Z,73.32
2022-10-31T03:49:15.280Z,66.23
2022-10-31T03:50:15.295Z,79.28
2022-10-31T03:51:15.272Z,62.36
2022-10-31T03:52:15.264Z,75.57
2022-10-31T03:53:15.263Z,74.44
2022-10-31T03:54:15.258Z,69.93
2022-10-31T03:55:15.260Z,76.86
2022-10-31T03:56:15.246Z,77.83
2022-10-31T03:57:15.305Z,74.44
2022-10-31T03:58:15.264Z,65.10
2022-10-31T03:59:15.224Z,73.48
2022-10-31T04:00:15.224Z,70.09
2022-10-31T04:01:15.431Z,74.60
2022-10-31T04:02:15.283Z,82.50
2022-10-31T04:03:15.204Z,74.44
2022-10-31T04:04:15.202Z,77.34
2022-10-31T04:05:15.246Z,72.03
2022-10-31T04:06:15.185Z,78.31
2022-10-31T04:07:15.163Z,76.38
2022-10-31T04:08:15.183Z,75.57
2022-10-31T04:09:15.169Z,78.47
2022-10-31T04:10:15.255Z,76.54
2022-10-31T04:11:16.171Z,63.33
2022-10-31T04:12:15.161Z,81.53
2022-10-31T04:13:15.204Z,76.38
2022-10-31T04:14:15.150Z,75.09
2022-10-31T04:15:15.125Z,77.02
2022-10-31T04:16:17.150Z,71.70
2022-10-31T04:17:15.349Z,61.71
2022-10-31T04:18:15.118Z,78.15
2022-10-31T04:19:15.163Z,75.41
2022-10-31T04:20:16.139Z,83.47
2022-10-31T04:21:15.103Z,76.70
2022-10-31T04:22:15.127Z,77.18
2022-10-31T04:23:15.074Z,75.41
2022-10-31T04:24:15.091Z,82.66
2022-10-31T04:25:15.071Z,76.70
2022-10-31T04:26:15.079Z,77.18
2022-10-31T04:27:15.694Z,86.21
2022-10-31T04:28:15.727Z,78.31
2022-10-31T04:29:15.074Z,79.60
2022-10-31T04:30:15.700Z,68.48
2022-10-31T04:31:15.069Z,73.48
2022-10-31T04:32:15.055Z,76.05
2022-10-31T04:33:15.040Z,77.67
2022-10-31T04:34:15.159Z,80.24
2022-10-31T04:35:15.094Z,81.21
2022-10-31T04:36:15.029Z,79.44
2022-10-31T04:37:15.008Z,75.41
2022-10-31T04:38:15.006Z,81.37
2022-10-31T04:39:15.043Z,76.05
2022-10-31T04:40:14.999Z,73.32
2022-10-31T04:41:15.002Z,72.99
2022-10-31T04:42:15.006Z,74.28
2022-10-31T04:43:15.043Z,76.54
2022-10-31T04:44:14.977Z,74.12
2022-10-31T04:45:18.375Z,73.80
2022-10-31T04:46:16.702Z,74.12
2022-10-31T04:47:15.122Z,77.83
2022-10-31T04:48:14.965Z,72.51
2022-10-31T04:49:14.965Z,75.73
2022-10-31T04:50:14.977Z,80.24
2022-10-31T04:51:14.945Z,75.89
2022-10-31T04:52:17.233Z,76.70
2022-10-31T04:53:14.942Z,85.40
2022-10-31T04:54:14.925Z,75.73
2022-10-31T04:55:14.922Z,83.63
2022-10-31T04:56:14.913Z,79.76
2022-10-31T04:57:14.900Z,84.43
2022-10-31T04:59:14.927Z,76.05
2022-10-31T05:00:14.900Z,82.02
2022-10-31T05:01:15.004Z,82.34
2022-10-31T05:02:14.969Z,81.05
2022-10-31T05:03:14.859Z,74.44
2022-10-31T05:04:14.880Z,74.60
2022-10-31T05:05:14.852Z,77.02
2022-10-31T05:06:14.851Z,72.03
2022-10-31T05:07:14.879Z,78.31
2022-10-31T05:08:14.848Z,74.77
2022-10-31T05:09:14.841Z,77.34
2022-10-31T05:10:14.824Z,82.18
2022-10-31T05:11:14.829Z,77.83
2022-10-31T05:12:14.811Z,76.38
2022-10-31T05:13:14.862Z,85.24
2022-10-31T05:14:14.832Z,85.08
2022-10-31T05:15:14.831Z,83.31
2022-10-31T05:16:14.780Z,78.79
2022-10-31T05:17:14.775Z,82.82
2022-10-31T05:18:14.787Z,76.05
2022-10-31T05:19:14.791Z,78.47
2022-10-31T05:20:14.779Z,82.02
2022-10-31T05:21:14.752Z,84.43
2022-10-31T05:22:14.757Z,74.93
2022-10-31T05:23:14.754Z,82.98
2022-10-31T05:24:14.726Z,79.44
2022-10-31T05:25:14.783Z,76.86
2022-10-31T05:26:14.732Z,78.31
2022-10-31T05:27:14.723Z,77.67
2022-10-31T05:28:14.735Z,78.31
2022-10-31T05:29:14.716Z,76.22
2022-10-31T05:30:14.712Z,73.96
2022-10-31T05:31:14.701Z,81.37
2022-10-31T05:32:14.681Z,80.08
2022-10-31T05:33:14.682Z,72.03
2022-10-31T05:34:14.693Z,77.34
2022-10-31T05:35:14.681Z,76.70
2022-10-31T05:36:14.712Z,76.38
2022-10-31T05:37:14.662Z,76.22
2022-10-31T05:38:14.714Z,74.93
2022-10-31T05:39:14.646Z,79.28
2022-10-31T05:40:14.641Z,76.38
2022-10-31T05:41:14.652Z,77.83
2022-10-31T05:42:15.223Z,79.76
2022-10-31T05:43:14.694Z,75.41
2022-10-31T05:44:14.633Z,77.18
2022-10-31T05:45:14.619Z,76.22
2022-10-31T05:46:14.669Z,78.31
2022-10-31T05:47:14.605Z,84.76
2022-10-31T05:48:14.613Z,75.41
2022-10-31T05:49:14.608Z,77.83
2022-10-31T05:50:15.223Z,78.47
2022-10-31T05:51:14.564Z,76.22
2022-10-31T05:52:14.584Z,78.47
2022-10-31T05:53:14.580Z,83.47
2022-10-31T05:54:16.002Z,82.66
2022-10-31T05:55:15.560Z,77.34
2022-10-31T05:56:14.560Z,83.14
2022-10-31T05:57:14.571Z,77.34
2022-10-31T05:58:14.555Z,81.37
2022-10-31T05:59:14.543Z,85.72
2022-10-31T06:00:14.679Z,79.28
2022-10-31T06:01:14.641Z,77.67
2022-10-31T06:02:14.508Z,75.25
2022-10-31T06:03:14.535Z,75.89
2022-10-31T06:04:14.534Z,80.57
2022-10-31T06:05:14.631Z,78.79
2022-10-31T06:06:14.504Z,81.86
2022-10-31T06:07:14.476Z,82.82
2022-10-31T06:08:14.776Z,84.76
2022-10-31T06:09:14.478Z,76.38
2022-10-31T06:10:14.455Z,76.05
2022-10-31T06:11:14.481Z,78.31
2022-10-31T06:12:14.478Z,86.69
2022-10-31T06:13:15.188Z,76.86
2022-10-31T06:14:14.436Z,78.47
2022-10-31T06:15:14.440Z,81.86
2022-10-31T06:16:14.429Z,83.14
2022-10-31T06:17:14.431Z,76.22
2022-10-31T06:18:14.434Z,77.67
2022-10-31T06:19:14.468Z,79.12
2022-10-31T06:20:14.486Z,76.38
2022-10-31T06:21:17.884Z,78.15
2022-10-31T06:22:14.412Z,83.79
2022-10-31T06:23:14.504Z,78.63
2022-10-31T06:24:14.388Z,78.63
2022-10-31T06:25:14.393Z,78.47
2022-10-31T06:26:14.404Z,78.96
2022-10-31T06:27:14.403Z,84.11
2022-10-31T06:28:15.380Z,83.31
2022-10-31T06:29:14.383Z,84.92
2022-10-31T06:30:14.360Z,82.18
2022-10-31T06:31:14.399Z,83.95
2022-10-31T06:32:14.345Z,77.99
2022-10-31T06:33:14.376Z,82.66
2022-10-31T06:34:14.331Z,76.86
2022-10-31T06:35:14.319Z,79.28
2022-10-31T06:36:14.373Z,77.99
2022-10-31T06:37:14.327Z,83.63
2022-10-31T06:38:14.337Z,79.12
2022-10-31T06:39:14.322Z,84.59
2022-10-31T06:40:14.315Z,78.79
2022-10-31T06:41:14.291Z,74.77
2022-10-31T06:42:14.282Z,84.11
2022-10-31T06:43:14.357Z,82.98
2022-10-31T06:44:14.322Z,78.79
2022-10-31T06:45:14.273Z,78.15
2022-10-31T06:46:14.279Z,79.60
2022-10-31T06:47:14.326Z,79.76
2022-10-31T06:48:18.469Z,83.31
2022-10-31T06:49:15.270Z,76.38
2022-10-31T06:50:14.242Z,82.66
2022-10-31T06:51:14.237Z,83.63
2022-10-31T06:52:14.233Z,78.63
2022-10-31T06:53:14.236Z,78.63
2022-10-31T06:54:14.237Z,81.69
2022-10-31T06:55:14.210Z,77.99
2022-10-31T06:56:14.220Z,82.82
2022-10-31T06:57:14.196Z,83.63
2022-10-31T06:58:14.201Z,84.76
2022-10-31T06:59:14.201Z,78.47
2022-10-31T07:00:14.197Z,80.41
2022-10-31T07:01:14.331Z,76.86
2022-10-31T07:02:14.312Z,77.02
2022-10-31T07:03:14.173Z,76.86
2022-10-31T07:04:14.212Z,76.22
2022-10-31T07:05:14.154Z,77.83
2022-10-31T07:06:14.187Z,83.63
2022-10-31T07:07:14.172Z,77.18
2022-10-31T07:08:14.137Z,76.70
2022-10-31T07:09:14.196Z,81.21
2022-10-31T07:10:14.205Z,78.79
2022-10-31T07:11:14.127Z,80.41
2022-10-31T07:12:14.124Z,77.50
2022-10-31T07:13:14.120Z,78.31
2022-10-31T07:14:14.140Z,82.02
2022-10-31T07:15:14.108Z,83.63
2022-10-31T07:16:14.168Z,82.50
2022-10-31T07:17:14.160Z,76.38
2022-10-31T07:18:14.124Z,75.41
2022-10-31T07:19:14.068Z,77.67
2022-10-31T07:20:14.085Z,78.15
2022-10-31T07:21:14.076Z,84.92
2022-10-31T07:22:14.060Z,81.69
2022-10-31T07:23:14.051Z,79.12
2022-10-31T07:24:14.052Z,79.28
2022-10-31T07:25:14.051Z,82.50
2022-10-31T07:26:14.035Z,79.28
2022-10-31T07:27:14.024Z,80.41
2022-10-31T07:28:14.029Z,77.50
2022-10-31T07:29:14.807Z,89.27
2022-10-31T07:30:14.066Z,81.69
2022-10-31T07:31:14.785Z,87.33
2022-10-31T07:32:13.996Z,78.15
2022-10-31T07:33:14.013Z,76.38
2022-10-31T07:34:14.001Z,84.27
2022-10-31T07:35:14.726Z,78.79
2022-10-31T07:36:13.973Z,83.14
2022-10-31T07:37:13.948Z,78.47
2022-10-31T07:38:14.010Z,75.25
2022-10-31T07:39:13.932Z,86.21
2022-10-31T07:40:14.031Z,79.76
2022-10-31T07:41:13.953Z,75.89
2022-10-31T07:42:13.924Z,82.34
2022-10-31T07:43:14.758Z,85.72
2022-10-31T07:44:15.520Z,80.24
2022-10-31T07:45:13.974Z,82.50
2022-10-31T07:46:13.951Z,85.08
2022-10-31T07:47:13.935Z,83.63
2022-10-31T07:48:13.980Z,83.95
2022-10-31T07:49:13.917Z,76.05
2022-10-31T07:50:13.967Z,77.50
2022-10-31T07:51:14.717Z,77.02
2022-10-31T07:52:13.880Z,77.50
2022-10-31T07:53:13.866Z,74.44
2022-10-31T07:54:13.846Z,77.67
2022-10-31T07:55:13.849Z,75.09
2022-10-31T07:56:13.833Z,76.38
2022-10-31T07:57:14.599Z,83.47
2022-10-31T07:58:13.813Z,76.70
2022-10-31T07:59:13.824Z,77.99
2022-10-31T08:00:13.800Z,78.31
2022-10-31T08:01:13.813Z,76.70
2022-10-31T08:02:13.802Z,84.11
2022-10-31T08:03:13.804Z,75.57
2022-10-31T08:04:13.809Z,77.34
2022-10-31T08:05:13.768Z,79.28
2022-10-31T08:06:13.781Z,75.25
2022-10-31T08:07:13.774Z,81.53
2022-10-31T08:08:13.787Z,77.18
2022-10-31T08:09:13.744Z,82.34
2022-10-31T08:10:14.744Z,77.18
2022-10-31T08:11:13.741Z,78.31
2022-10-31T08:12:13.734Z,81.05
2022-10-31T08:13:13.749Z,84.59
2022-10-31T08:14:13.729Z,75.73
2022-10-31T08:15:13.780Z,75.73
2022-10-31T08:16:15.762Z,78.31
2022-10-31T08:17:13.692Z,75.57
2022-10-31T08:18:13.964Z,82.50
2022-10-31T08:19:13.692Z,75.73
2022-10-31T08:20:13.732Z,76.05
2022-10-31T08:21:13.672Z,76.22
2022-10-31T08:22:13.720Z,75.57
2022-10-31T08:23:15.705Z,78.47
2022-10-31T08:24:14.625Z,77.18
2022-10-31T08:25:14.585Z,81.37
2022-10-31T08:26:13.646Z,74.12
2022-10-31T08:27:13.633Z,79.28
2022-10-31T08:28:13.624Z,77.02
2022-10-31T08:29:13.632Z,74.77
2022-10-31T08:30:13.641Z,79.76
2022-10-31T08:31:13.623Z,76.70
2022-10-31T08:32:13.924Z,81.37
2022-10-31T08:33:13.720Z,78.31
2022-10-31T08:34:13.698Z,77.18
2022-10-31T08:35:16.483Z,76.22
2022-10-31T08:36:13.579Z,74.60
2022-10-31T08:37:13.577Z,81.21
2022-10-31T08:38:13.581Z,77.18
2022-10-31T08:39:13.602Z,77.83
2022-10-31T08:40:13.572Z,80.08
2022-10-31T08:41:13.564Z,78.79
2022-10-31T08:42:14.578Z,82.02
2022-10-31T08:43:13.584Z,76.22
2022-10-31T08:44:13.680Z,75.09
2022-10-31T08:45:13.535Z,82.34
2022-10-31T08:46:13.526Z,77.34
2022-10-31T08:47:13.530Z,78.96
2022-10-31T08:48:13.526Z,77.18
2022-10-31T08:49:13.529Z,75.25
2022-10-31T08:50:14.203Z,79.60
2022-10-31T08:51:13.492Z,78.15
2022-10-31T08:52:14.572Z,73.96
2022-10-31T08:53:14.503Z,76.38
2022-10-31T08:54:13.483Z,75.73
2022-10-31T08:55:13.464Z,76.05
2022-10-31T08:56:13.500Z,77.34
2022-10-31T08:57:13.456Z,75.73
2022-10-31T08:58:13.506Z,79.76
2022-10-31T08:59:13.435Z,76.86
2022-10-31T09:00:13.455Z,78.63
2022-10-31T09:01:13.652Z,78.31
2022-10-31T09:02:13.568Z,79.28
2022-10-31T09:03:13.427Z,78.15
2022-10-31T09:04:13.403Z,83.14
2022-10-31T09:05:13.436Z,71.38
2022-10-31T09:06:13.514Z,80.08
2022-10-31T09:07:21.441Z,74.28
2022-10-31T09:08:16.869Z,76.38
2022-10-31T09:09:14.391Z,76.05
2022-10-31T09:10:13.386Z,74.44
2022-10-31T09:11:13.350Z,74.44
2022-10-31T09:12:13.383Z,75.25
2022-10-31T09:13:13.406Z,75.25
2022-10-31T09:14:13.346Z,76.54
2022-10-31T09:15:13.338Z,82.18
2022-10-31T09:16:13.350Z,75.73
2022-10-31T09:17:13.322Z,74.77
2022-10-31T09:18:13.315Z,76.05
2022-10-31T09:19:13.309Z,76.38
2022-10-31T09:20:13.298Z,83.79
2022-10-31T09:21:13.318Z,76.86
2022-10-31T09:22:13.290Z,80.41
2022-10-31T09:23:13.283Z,82.34
2022-10-31T09:24:13.281Z,74.60
2022-10-31T09:25:13.271Z,80.57
2022-10-31T09:26:13.282Z,76.38
2022-10-31T09:27:13.259Z,77.50
2022-10-31T09:28:13.263Z,81.53
2022-10-31T09:29:13.258Z,76.54
2022-10-31T09:30:13.243Z,79.12
2022-10-31T09:31:13.243Z,83.47
2022-10-31T09:32:13.247Z,80.24
2022-10-31T09:33:13.234Z,77.83
2022-10-31T09:34:14.241Z,77.02
2022-10-31T09:35:13.287Z,83.14
2022-10-31T09:36:13.209Z,75.73
2022-10-31T09:37:13.215Z,76.86
2022-10-31T09:38:13.209Z,81.05
2022-10-31T09:39:13.186Z,76.05
2022-10-31T09:40:13.346Z,77.50
2022-10-31T09:41:15.295Z,73.80
2022-10-31T09:42:13.186Z,79.60
2022-10-31T09:43:13.156Z,77.50
2022-10-31T09:44:13.166Z,75.09
2022-10-31T09:45:13.147Z,79.44
2022-10-31T09:46:13.148Z,76.86
2022-10-31T09:47:13.131Z,83.47
2022-10-31T09:48:13.186Z,74.93
2022-10-31T09:49:13.172Z,75.89
2022-10-31T09:50:13.130Z,76.05
2022-10-31T09:51:13.117Z,78.63
2022-10-31T09:52:13.668Z,82.18
2022-10-31T09:53:13.175Z,75.73
2022-10-31T09:54:13.103Z,77.18
2022-10-31T09:55:13.098Z,77.02
2022-10-31T09:56:13.767Z,74.44
2022-10-31T09:57:13.091Z,74.93
2022-10-31T09:58:14.039Z,76.54
2022-10-31T09:59:13.066Z,75.41
2022-10-31T10:00:13.061Z,76.70
2022-10-31T10:01:13.192Z,76.54
2022-10-31T10:02:13.096Z,75.73
2022-10-31T10:03:13.058Z,76.86
2022-10-31T10:04:14.668Z,79.12
2022-10-31T10:05:15.045Z,78.31
2022-10-31T10:06:14.036Z,77.34
2022-10-31T10:07:13.047Z,71.54
2022-10-31T10:08:13.020Z,74.12
2022-10-31T10:09:13.108Z,84.27
2022-10-31T10:10:13.014Z,84.11
2022-10-31T10:11:13.001Z,73.80
2022-10-31T10:12:13.071Z,75.09
2022-10-31T10:13:13.365Z,81.21
2022-10-31T10:14:12.981Z,87.01
2022-10-31T10:15:13.008Z,75.57
2022-10-31T10:16:12.988Z,73.64
2022-10-31T10:17:12.991Z,74.77
2022-10-31T10:18:12.952Z,76.22
2022-10-31T10:19:13.092Z,79.60
2022-10-31T10:20:12.945Z,76.38
2022-10-31T10:21:13.107Z,84.76
2022-10-31T10:22:12.937Z,79.92
2022-10-31T10:23:13.955Z,76.05
2022-10-31T10:24:12.985Z,86.37
2022-10-31T10:25:12.970Z,75.73
2022-10-31T10:26:13.778Z,74.93
2022-10-31T10:27:12.913Z,75.25
2022-10-31T10:28:12.921Z,74.93
2022-10-31T10:29:12.907Z,83.79
2022-10-31T10:30:12.894Z,76.22
2022-10-31T10:31:12.911Z,73.48
2022-10-31T10:32:12.925Z,77.50
2022-10-31T10:33:13.011Z,80.89
2022-10-31T10:34:12.871Z,75.57
2022-10-31T10:35:12.863Z,74.44
2022-10-31T10:36:12.907Z,74.93
2022-10-31T10:37:12.872Z,76.22
2022-10-31T10:38:12.847Z,74.60
2022-10-31T10:39:12.848Z,75.25
2022-10-31T10:40:12.839Z,78.47
2022-10-31T10:41:12.837Z,75.09
2022-10-31T10:42:12.850Z,75.73
2022-10-31T10:43:12.809Z,76.70
2022-10-31T10:44:12.811Z,71.22
2022-10-31T10:45:12.806Z,84.11
2022-10-31T10:46:12.812Z,72.67
2022-10-31T10:47:12.800Z,71.06
2022-10-31T10:48:12.812Z,77.99
2022-10-31T10:49:12.805Z,75.25
2022-10-31T10:50:12.769Z,74.93
2022-10-31T10:51:25.559Z,75.41
2022-10-31T10:53:14.752Z,80.24
2022-10-31T10:54:12.772Z,75.57
2022-10-31T10:55:12.823Z,78.47
2022-10-31T10:56:12.876Z,75.25
2022-10-31T10:57:12.737Z,80.73
2022-10-31T10:58:12.724Z,84.11
2022-10-31T10:59:12.730Z,73.48
2022-10-31T11:00:12.726Z,76.38
2022-10-31T11:01:12.827Z,75.89
2022-10-31T11:02:12.701Z,75.41
2022-10-31T11:03:12.731Z,76.86
2022-10-31T11:04:12.717Z,76.05
2022-10-31T11:05:12.692Z,80.41
2022-10-31T11:06:12.701Z,74.28
2022-10-31T11:07:12.672Z,81.37
2022-10-31T11:08:12.672Z,84.92
2022-10-31T11:09:12.760Z,76.86
2022-10-31T11:10:12.656Z,79.12
2022-10-31T11:11:12.648Z,84.11
2022-10-31T11:12:12.640Z,76.70
2022-10-31T11:13:12.616Z,75.89
2022-10-31T11:14:12.617Z,75.25
2022-10-31T11:15:12.664Z,79.76
2022-10-31T11:16:12.657Z,74.60
2022-10-31T11:17:12.595Z,75.89
2022-10-31T11:18:12.609Z,75.25
2022-10-31T11:19:12.586Z,81.86
2022-10-31T11:20:16.314Z,81.21
2022-10-31T11:21:14.570Z,73.96
2022-10-31T11:22:12.569Z,81.69
2022-10-31T11:23:12.563Z,74.44
2022-10-31T11:24:12.561Z,76.70
2022-10-31T11:25:12.564Z,76.86
2022-10-31T11:26:12.558Z,80.41
2022-10-31T11:27:12.552Z,78.15
2022-10-31T11:28:12.663Z,77.67
2022-10-31T11:29:12.580Z,80.57
2022-10-31T11:30:12.574Z,77.34
2022-10-31T11:31:12.551Z,76.05
2022-10-31T11:32:12.598Z,80.73
2022-10-31T11:33:12.497Z,77.83
2022-10-31T11:34:12.553Z,73.96
2022-10-31T11:35:12.494Z,73.48
2022-10-31T11:36:12.495Z,80.08
2022-10-31T11:37:12.484Z,79.12
2022-10-31T11:38:12.463Z,78.63
2022-10-31T11:39:12.500Z,77.83
2022-10-31T11:40:12.470Z,74.28
2022-10-31T11:41:12.472Z,74.93
2022-10-31T11:42:12.475Z,79.76
2022-10-31T11:43:12.472Z,75.73
2022-10-31T11:44:12.444Z,79.12
2022-10-31T11:45:12.468Z,73.64
2022-10-31T11:46:12.442Z,75.57
2022-10-31T11:47:12.445Z,77.50
2022-10-31T11:48:12.424Z,76.70
2022-10-31T11:49:12.414Z,78.31
2022-10-31T11:50:13.417Z,80.73
2022-10-31T11:51:12.432Z,78.96
2022-10-31T11:52:12.430Z,76.05
2022-10-31T11:53:12.411Z,72.99
2022-10-31T11:54:12.382Z,75.57
2022-10-31T11:55:12.740Z,74.93
2022-10-31T11:56:12.514Z,75.25
2022-10-31T11:57:12.403Z,85.40
2022-10-31T11:58:12.384Z,75.41
2022-10-31T11:59:12.364Z,75.41
2022-10-31T12:00:12.426Z,77.34
2022-10-31T12:01:12.419Z,85.24
2022-10-31T12:02:13.639Z,78.63
2022-10-31T12:03:12.376Z,73.96
2022-10-31T12:04:12.328Z,73.80
2022-10-31T12:05:14.246Z,75.41
2022-10-31T12:06:12.316Z,78.96
2022-10-31T12:07:12.341Z,80.57
2022-10-31T12:08:13.272Z,76.38
2022-10-31T12:09:12.304Z,73.80
2022-10-31T12:10:12.320Z,75.09
2022-10-31T12:11:12.287Z,75.09
2022-10-31T12:12:12.332Z,83.31
2022-10-31T12:13:12.280Z,74.60
2022-10-31T12:14:12.308Z,82.66
2022-10-31T12:15:12.302Z,75.25
2022-10-31T12:16:12.284Z,74.77
2022-10-31T12:17:12.264Z,78.47
2022-10-31T12:18:12.274Z,82.66
2022-10-31T12:19:12.253Z,77.34
2022-10-31T12:20:12.218Z,74.77
2022-10-31T12:21:13.696Z,81.05
2022-10-31T12:22:12.213Z,80.41
2022-10-31T12:23:12.249Z,78.79
2022-10-31T12:24:12.303Z,78.47
2022-10-31T12:25:12.227Z,76.54
2022-10-31T12:26:12.242Z,74.12
2022-10-31T12:27:12.184Z,85.72
2022-10-31T12:28:12.292Z,76.86
2022-10-31T12:29:12.836Z,73.48
2022-10-31T12:30:12.185Z,84.27
2022-10-31T12:31:12.212Z,74.77
2022-10-31T12:32:12.164Z,77.02
2022-10-31T12:33:12.158Z,74.60
2022-10-31T12:34:12.172Z,84.11
2022-10-31T12:35:12.155Z,82.98
2022-10-31T12:36:15.225Z,76.22
2022-10-31T12:37:12.170Z,74.12
2022-10-31T12:38:12.159Z,80.89
2022-10-31T12:39:12.120Z,76.05
2022-10-31T12:40:12.142Z,81.37
2022-10-31T12:41:12.118Z,78.47
2022-10-31T12:42:12.151Z,82.34
2022-10-31T12:43:12.103Z,77.99
2022-10-31T12:44:12.092Z,81.53
2022-10-31T12:45:12.090Z,79.28
2022-10-31T12:46:12.107Z,74.28
2022-10-31T12:47:12.792Z,75.41
2022-10-31T12:48:12.075Z,75.25
2022-10-31T12:49:12.140Z,80.73
2022-10-31T12:50:12.071Z,74.28
2022-10-31T12:51:12.155Z,75.25
2022-10-31T12:52:12.031Z,74.77
2022-10-31T12:53:13.130Z,73.48
2022-10-31T12:54:12.027Z,83.63